Shenzhen, China
Current Conditions -  °F | °C
As of 9:30 AM on Tuesday 23 Dec 2014 (Local Time) from VHHH Reporting Station
Scattered Clouds Scattered Clouds  
Wind Chill: 59°   Ceiling: Unl
Heat Index: 59°   Visibility: 6mi
Dew Point: 34°   Wind: 12mph
Humidity: 39%   Direction: 50°NE
Pressure: 30.21"   Gusts: NA
Location:  22.53°N, 114.13°E
Report Text: VHHH 230130Z 05010KT 9999 FEW022 SCT040 15/01 Q1023 NOSIG
Loading
Personal Weather Stations






























Interactive Weather Map New forecast layout! Learn more

10-Day Weather Forecast

Advertisements
Track Severe Weather on mobile